createdAt,value
2016-12-10T00:00:27.175Z,964.61
2016-12-10T00:01:27.193Z,964.62
2016-12-10T00:02:27.209Z,964.62
2016-12-10T00:03:27.224Z,964.66
2016-12-10T00:04:27.241Z,964.59
2016-12-10T00:05:27.256Z,964.6
2016-12-10T00:06:27.294Z,964.53
2016-12-10T00:07:27.288Z,964.53
2016-12-10T00:08:27.303Z,964.56
2016-12-10T00:09:27.319Z,964.47
2016-12-10T00:10:27.335Z,964.51
2016-12-10T00:11:27.350Z,964.45
2016-12-10T00:12:27.367Z,964.5
2016-12-10T00:13:27.383Z,964.48
2016-12-10T00:14:27.399Z,964.45
2016-12-10T00:15:27.415Z,964.43
2016-12-10T00:16:27.431Z,964.41
2016-12-10T00:17:27.447Z,964.44
2016-12-10T00:18:27.463Z,964.4
2016-12-10T00:19:27.743Z,964.41
2016-12-10T00:20:28.063Z,964.37
2016-12-10T00:21:27.709Z,964.39
2016-12-10T00:22:27.731Z,964.39
2016-12-10T00:23:28.124Z,964.34
2016-12-10T00:24:27.721Z,964.39
2016-12-10T00:25:27.575Z,964.33
2016-12-10T00:26:27.591Z,964.34
2016-12-10T00:27:27.607Z,964.32
2016-12-10T00:28:27.624Z,964.32
2016-12-10T00:29:27.638Z,964.41
2016-12-10T00:30:27.655Z,964.42
2016-12-10T00:31:27.669Z,964.39
2016-12-10T00:32:27.687Z,964.37
2016-12-10T00:33:27.701Z,964.37
2016-12-10T00:34:27.717Z,964.38
2016-12-10T00:35:27.735Z,964.4
2016-12-10T00:36:27.750Z,964.43
2016-12-10T00:37:27.765Z,964.46
2016-12-10T00:38:27.779Z,964.44
2016-12-10T00:39:27.796Z,964.47
2016-12-10T00:40:27.812Z,964.42
2016-12-10T00:41:27.830Z,964.43
2016-12-10T00:42:27.844Z,964.37
2016-12-10T00:43:27.860Z,964.33
2016-12-10T00:44:27.875Z,964.35
2016-12-10T00:45:27.891Z,964.33
2016-12-10T00:46:27.906Z,964.32
2016-12-10T00:47:27.925Z,964.29
2016-12-10T00:48:27.938Z,964.28
2016-12-10T00:49:27.954Z,964.28
2016-12-10T00:50:27.971Z,964.3
2016-12-10T00:51:27.985Z,964.28
2016-12-10T00:52:28.001Z,964.31
2016-12-10T00:53:28.017Z,964.27
2016-12-10T00:54:28.033Z,964.26
2016-12-10T00:55:28.049Z,964.22
2016-12-10T00:56:28.065Z,964.27
2016-12-10T00:57:28.080Z,964.22
2016-12-10T00:58:28.097Z,964.23
2016-12-10T00:59:28.112Z,964.23
2016-12-10T01:00:28.128Z,964.25
2016-12-10T01:01:28.144Z,964.24
2016-12-10T01:02:28.159Z,964.25
2016-12-10T01:03:28.175Z,964.22
2016-12-10T01:04:28.195Z,964.21
2016-12-10T01:05:28.207Z,964.19
2016-12-10T01:06:28.221Z,964.19
2016-12-10T01:07:28.238Z,964.23
2016-12-10T01:08:28.253Z,964.16
2016-12-10T01:09:28.270Z,964.22
2016-12-10T01:10:28.286Z,964.27
2016-12-10T01:11:28.303Z,964.25
2016-12-10T01:12:28.317Z,964.22
2016-12-10T01:13:28.332Z,964.27
2016-12-10T01:14:28.349Z,964.27
2016-12-10T01:15:28.367Z,964.26
2016-12-10T01:16:28.380Z,964.28
2016-12-10T01:17:28.395Z,964.25
2016-12-10T01:18:28.411Z,964.29
2016-12-10T01:19:28.629Z,964.22
2016-12-10T01:20:28.442Z,964.22
2016-12-10T01:21:28.459Z,964.21
2016-12-10T01:22:28.473Z,964.18
2016-12-10T01:23:28.489Z,964.19
2016-12-10T01:24:28.505Z,964.14
2016-12-10T01:25:28.521Z,964.14
2016-12-10T01:26:28.548Z,964.15
2016-12-10T01:27:28.551Z,964.11
2016-12-10T01:28:28.566Z,964.12
2016-12-10T01:29:28.582Z,964.12
2016-12-10T01:30:28.598Z,964.09
2016-12-10T01:31:28.612Z,964.07
2016-12-10T01:32:28.628Z,964.05
2016-12-10T01:33:28.643Z,964.05
2016-12-10T01:34:28.659Z,964.01
2016-12-10T01:35:28.674Z,964.03
2016-12-10T01:36:28.689Z,964.02
2016-12-10T01:37:28.704Z,963.99
2016-12-10T01:38:28.720Z,964.01
2016-12-10T01:39:28.733Z,964
2016-12-10T01:40:28.751Z,964.02
2016-12-10T01:41:28.774Z,963.99
2016-12-10T01:42:28.780Z,964
2016-12-10T01:43:28.795Z,963.97
2016-12-10T01:44:28.811Z,963.95
2016-12-10T01:45:28.826Z,963.92
2016-12-10T01:46:28.839Z,963.9
2016-12-10T01:47:28.855Z,963.89
2016-12-10T01:48:28.871Z,963.9
2016-12-10T01:49:28.886Z,963.86
2016-12-10T01:50:28.901Z,963.9
2016-12-10T01:51:28.918Z,963.88
2016-12-10T01:52:28.930Z,963.86
2016-12-10T01:53:28.945Z,963.87
2016-12-10T01:54:28.962Z,963.88
2016-12-10T01:55:28.977Z,963.86
2016-12-10T01:56:28.993Z,963.84
2016-12-10T01:57:29.007Z,963.84
2016-12-10T01:58:29.023Z,963.84
2016-12-10T01:59:29.036Z,963.84
2016-12-10T02:00:29.053Z,963.78
2016-12-10T02:01:29.067Z,963.75
2016-12-10T02:02:29.083Z,963.71
2016-12-10T02:03:29.099Z,963.65
2016-12-10T02:04:29.112Z,963.65
2016-12-10T02:05:29.127Z,963.63
2016-12-10T02:06:29.143Z,963.64
2016-12-10T02:07:29.158Z,963.62
2016-12-10T02:08:29.173Z,963.63
2016-12-10T02:09:29.189Z,963.65
2016-12-10T02:10:29.204Z,963.64
2016-12-10T02:11:29.219Z,963.68
2016-12-10T02:12:29.234Z,963.61
2016-12-10T02:13:29.249Z,963.61
2016-12-10T02:14:29.264Z,963.6
2016-12-10T02:15:29.278Z,963.61
2016-12-10T02:16:29.293Z,963.56
2016-12-10T02:17:29.316Z,963.53
2016-12-10T02:18:29.324Z,963.59
2016-12-10T02:19:29.338Z,963.61
2016-12-10T02:20:29.353Z,963.55
2016-12-10T02:21:29.369Z,963.55
2016-12-10T02:22:29.384Z,963.52
2016-12-10T02:23:29.399Z,963.52
2016-12-10T02:24:29.414Z,963.52
2016-12-10T02:25:29.429Z,963.52
2016-12-10T02:26:29.443Z,963.54
2016-12-10T02:27:29.459Z,963.5
2016-12-10T02:28:29.475Z,963.52
2016-12-10T02:29:29.490Z,963.5
2016-12-10T02:30:29.505Z,963.51
2016-12-10T02:31:29.519Z,963.54
2016-12-10T02:32:29.540Z,963.48
2016-12-10T02:33:29.549Z,963.54
2016-12-10T02:34:29.564Z,963.52
2016-12-10T02:35:29.578Z,963.51
2016-12-10T02:36:29.595Z,963.53
2016-12-10T02:37:29.609Z,963.5
2016-12-10T02:38:29.623Z,963.49
2016-12-10T02:39:29.639Z,963.52
2016-12-10T02:40:30.082Z,963.5
2016-12-10T02:41:29.839Z,963.47
2016-12-10T02:42:29.839Z,963.43
2016-12-10T02:43:29.803Z,963.48
2016-12-10T02:44:29.803Z,963.41
2016-12-10T02:45:29.742Z,963.4
2016-12-10T02:46:29.910Z,963.4
2016-12-10T02:47:30.229Z,963.38
2016-12-10T02:48:29.802Z,963.33
2016-12-10T02:49:29.789Z,963.34
2016-12-10T02:50:29.806Z,963.35
2016-12-10T02:51:29.819Z,963.34
2016-12-10T02:52:29.836Z,963.3
2016-12-10T02:53:29.849Z,963.32
2016-12-10T02:54:29.865Z,963.3
2016-12-10T02:55:29.879Z,963.3
2016-12-10T02:56:29.895Z,963.32
2016-12-10T02:57:29.911Z,963.34
2016-12-10T02:58:29.924Z,963.36
2016-12-10T02:59:29.939Z,963.35
2016-12-10T03:00:30.048Z,963.37
2016-12-10T03:01:30.144Z,963.35
2016-12-10T03:03:30.438Z,963.31
2016-12-10T03:04:30.028Z,963.33
2016-12-10T03:05:30.303Z,963.28
2016-12-10T03:06:30.046Z,963.29
2016-12-10T03:07:30.239Z,963.26
2016-12-10T03:08:30.092Z,963.33
2016-12-10T03:09:30.244Z,963.3
2016-12-10T03:10:30.480Z,963.29
2016-12-10T03:11:30.261Z,963.29
2016-12-10T03:12:30.174Z,963.28
2016-12-10T03:13:30.587Z,963.25
2016-12-10T03:14:30.167Z,963.23
2016-12-10T03:15:30.338Z,963.21
2016-12-10T03:16:30.342Z,963.2
2016-12-10T03:17:30.230Z,963.21
2016-12-10T03:18:30.233Z,963.19
2016-12-10T03:19:30.672Z,963.16
2016-12-10T03:20:30.341Z,963.15
2016-12-10T03:21:30.412Z,963.08
2016-12-10T03:22:30.715Z,963.11
2016-12-10T03:23:30.319Z,963.05
2016-12-10T03:24:30.456Z,963.09
2016-12-10T03:25:30.322Z,963.04
2016-12-10T03:26:30.347Z,963.04
2016-12-10T03:27:30.633Z,963
2016-12-10T03:28:30.438Z,963.02
2016-12-10T03:29:30.439Z,963
2016-12-10T03:30:30.417Z,963.02
2016-12-10T03:31:30.566Z,963.06
2016-12-10T03:32:30.424Z,963.07
2016-12-10T03:33:30.615Z,963.08
2016-12-10T03:34:30.538Z,963.07
2016-12-10T03:35:30.519Z,963.07
2016-12-10T03:36:30.874Z,963.07
2016-12-10T03:37:30.962Z,963.04
2016-12-10T03:38:30.516Z,963.02
2016-12-10T03:39:30.527Z,963.06
2016-12-10T03:40:30.543Z,962.99
2016-12-10T03:41:30.556Z,963.02
2016-12-10T03:42:30.572Z,962.99
2016-12-10T03:43:30.586Z,962.97
2016-12-10T03:44:30.601Z,963.01
2016-12-10T03:45:30.616Z,963.02
2016-12-10T03:46:30.632Z,962.99
2016-12-10T03:47:30.645Z,962.96
2016-12-10T03:48:30.662Z,962.94
2016-12-10T03:49:30.676Z,962.96
2016-12-10T03:50:30.689Z,962.93
2016-12-10T03:51:30.705Z,962.96
2016-12-10T03:52:30.722Z,962.96
2016-12-10T03:53:30.735Z,962.95
2016-12-10T03:54:30.750Z,962.92
2016-12-10T03:55:30.765Z,962.89
2016-12-10T03:56:30.780Z,962.86
2016-12-10T03:57:30.795Z,962.86
2016-12-10T03:58:30.809Z,962.86
2016-12-10T03:59:30.838Z,962.85
2016-12-10T04:00:30.840Z,962.81
2016-12-10T04:01:30.854Z,962.83
2016-12-10T04:02:30.869Z,962.82
2016-12-10T04:03:30.886Z,962.8
2016-12-10T04:04:30.902Z,962.77
2016-12-10T04:05:30.914Z,962.76
2016-12-10T04:06:30.929Z,962.78
2016-12-10T04:07:30.946Z,962.78
2016-12-10T04:08:30.962Z,962.8
2016-12-10T04:09:30.974Z,962.79
2016-12-10T04:10:30.990Z,962.79
2016-12-10T04:11:31.005Z,962.8
2016-12-10T04:12:31.020Z,962.77
2016-12-10T04:13:31.116Z,962.8
2016-12-10T04:14:31.065Z,962.78
2016-12-10T04:15:31.067Z,962.79
2016-12-10T04:16:31.079Z,962.79
2016-12-10T04:17:31.096Z,962.75
2016-12-10T04:18:31.113Z,962.71
2016-12-10T04:19:31.127Z,962.71
2016-12-10T04:20:31.143Z,962.67
2016-12-10T04:21:31.158Z,962.7
2016-12-10T04:22:31.173Z,962.69
2016-12-10T04:23:31.188Z,962.65
2016-12-10T04:24:31.204Z,962.63
2016-12-10T04:25:31.219Z,962.64
2016-12-10T04:26:31.234Z,962.64
2016-12-10T04:27:31.249Z,962.63
2016-12-10T04:28:31.268Z,962.58
2016-12-10T04:29:31.280Z,962.6
2016-12-10T04:30:31.294Z,962.57
2016-12-10T04:31:31.309Z,962.54
2016-12-10T04:32:31.325Z,962.53
2016-12-10T04:33:31.340Z,962.53
2016-12-10T04:34:31.354Z,962.52
2016-12-10T04:35:31.373Z,962.54
2016-12-10T04:36:31.407Z,962.58
2016-12-10T04:37:31.402Z,962.56
2016-12-10T04:38:31.415Z,962.54
2016-12-10T04:39:31.431Z,962.59
2016-12-10T04:40:31.445Z,962.59
2016-12-10T04:41:31.461Z,962.57
2016-12-10T04:42:31.475Z,962.53
2016-12-10T04:43:31.492Z,962.56
2016-12-10T04:44:31.507Z,962.53
2016-12-10T04:45:31.523Z,962.53
2016-12-10T04:46:31.537Z,962.46
2016-12-10T04:47:31.552Z,962.5
2016-12-10T04:48:31.568Z,962.48
2016-12-10T04:49:31.581Z,962.48
2016-12-10T04:50:31.597Z,962.46
2016-12-10T04:51:31.613Z,962.49
2016-12-10T04:52:31.627Z,962.46
2016-12-10T04:53:31.643Z,962.44
2016-12-10T04:54:31.759Z,962.45
2016-12-10T04:55:31.673Z,962.47
2016-12-10T04:56:31.689Z,962.48
2016-12-10T04:57:31.707Z,962.44
2016-12-10T04:58:31.720Z,962.41
2016-12-10T04:59:31.735Z,962.44
2016-12-10T05:00:31.750Z,962.42
2016-12-10T05:01:31.764Z,962.4
2016-12-10T05:02:31.782Z,962.4
2016-12-10T05:03:31.795Z,962.39
2016-12-10T05:04:31.811Z,962.41
2016-12-10T05:05:31.827Z,962.43
2016-12-10T05:06:31.840Z,962.44
2016-12-10T05:07:31.856Z,962.4
2016-12-10T05:08:31.871Z,962.44
2016-12-10T05:09:31.887Z,962.4
2016-12-10T05:10:31.902Z,962.36
2016-12-10T05:11:31.917Z,962.35
2016-12-10T05:12:31.945Z,962.35
2016-12-10T05:13:31.947Z,962.37
2016-12-10T05:14:31.961Z,962.34
2016-12-10T05:15:31.976Z,962.34
2016-12-10T05:16:31.993Z,962.29
2016-12-10T05:17:32.007Z,962.3
2016-12-10T05:18:32.021Z,962.26
2016-12-10T05:19:32.035Z,962.3
2016-12-10T05:20:32.052Z,962.28
2016-12-10T05:21:32.067Z,962.26
2016-12-10T05:22:32.081Z,962.26
2016-12-10T05:23:32.097Z,962.24
2016-12-10T05:24:32.114Z,962.22
2016-12-10T05:25:32.127Z,962.22
2016-12-10T05:26:32.142Z,962.2
2016-12-10T05:27:32.167Z,962.18
2016-12-10T05:28:32.171Z,962.21
2016-12-10T05:29:32.186Z,962.2
2016-12-10T05:30:32.201Z,962.21
2016-12-10T05:31:32.217Z,962.17
2016-12-10T05:32:32.232Z,962.19
2016-12-10T05:33:32.246Z,962.17
2016-12-10T05:34:32.260Z,962.16
2016-12-10T05:35:32.276Z,962.11
2016-12-10T05:36:32.291Z,962.15
2016-12-10T05:37:32.306Z,962.14
2016-12-10T05:38:32.321Z,962.13
2016-12-10T05:39:32.338Z,962.16
2016-12-10T05:40:32.351Z,962.12
2016-12-10T05:41:32.372Z,962.18
2016-12-10T05:42:32.381Z,962.16
2016-12-10T05:43:32.396Z,962.16
2016-12-10T05:44:32.411Z,962.15
2016-12-10T05:45:32.426Z,962.17
2016-12-10T05:46:32.443Z,962.16
2016-12-10T05:47:32.455Z,962.17
2016-12-10T05:48:32.470Z,962.16
2016-12-10T05:49:32.486Z,962.22
2016-12-10T05:50:32.501Z,962.18
2016-12-10T05:51:32.515Z,962.18
2016-12-10T05:52:32.531Z,962.17
2016-12-10T05:53:32.545Z,962.17
2016-12-10T05:54:32.561Z,962.16
2016-12-10T05:55:32.576Z,962.13
2016-12-10T05:56:32.594Z,962.14
2016-12-10T05:57:32.606Z,962.16
2016-12-10T05:58:32.620Z,962.14
2016-12-10T05:59:32.639Z,962.15
2016-12-10T06:00:32.651Z,962.13
2016-12-10T06:01:32.666Z,962.15
2016-12-10T06:02:32.680Z,962.1
2016-12-10T06:03:32.705Z,962.13
2016-12-10T06:04:32.710Z,962.1
2016-12-10T06:05:32.724Z,962.15
2016-12-10T06:06:32.740Z,962.14
2016-12-10T06:07:32.755Z,962.15
2016-12-10T06:08:32.770Z,962.15
2016-12-10T06:09:32.783Z,962.15
2016-12-10T06:10:32.797Z,962.13
2016-12-10T06:11:32.813Z,962.12
2016-12-10T06:12:32.828Z,962.13
2016-12-10T06:13:32.843Z,962.12
2016-12-10T06:14:32.858Z,962.11
2016-12-10T06:15:32.873Z,962.14
2016-12-10T06:16:32.887Z,962.14
2016-12-10T06:17:32.901Z,962.13
2016-12-10T06:18:32.927Z,962.13
2016-12-10T06:19:32.932Z,962.15
2016-12-10T06:20:32.945Z,962.13
2016-12-10T06:21:32.961Z,962.13
2016-12-10T06:22:32.976Z,962.16
2016-12-10T06:23:32.991Z,962.12
2016-12-10T06:24:33.005Z,962.11
2016-12-10T06:25:33.021Z,962.13
2016-12-10T06:26:33.036Z,962.12
2016-12-10T06:27:33.050Z,962.11
2016-12-10T06:28:33.066Z,962.12
2016-12-10T06:29:33.081Z,962.09
2016-12-10T06:30:33.096Z,962.12
2016-12-10T06:31:33.110Z,962.12
2016-12-10T06:32:33.127Z,962.1
2016-12-10T06:33:33.141Z,962.14
2016-12-10T06:34:33.156Z,962.13
2016-12-10T06:35:33.170Z,962.14
2016-12-10T06:36:33.185Z,962.11
2016-12-10T06:37:33.201Z,962.11
2016-12-10T06:38:33.215Z,962.11
2016-12-10T06:39:33.233Z,962.11
2016-12-10T06:40:33.245Z,962.13
2016-12-10T06:41:33.262Z,962.09
2016-12-10T06:42:33.275Z,962.09
2016-12-10T06:43:33.291Z,962.09
2016-12-10T06:44:33.307Z,962.09
2016-12-10T06:45:33.322Z,962.07
2016-12-10T06:46:33.336Z,962.06
2016-12-10T06:47:33.351Z,962.07
2016-12-10T06:48:33.367Z,962.07
2016-12-10T06:49:33.382Z,962.01
2016-12-10T06:50:33.397Z,962.03
2016-12-10T06:51:33.412Z,962
2016-12-10T06:52:33.428Z,962.03
2016-12-10T06:53:33.442Z,962.02
2016-12-10T06:54:33.463Z,962.03
2016-12-10T06:55:33.473Z,962.04
2016-12-10T06:56:33.488Z,962.04
2016-12-10T06:57:33.503Z,962.09
2016-12-10T06:58:33.518Z,962.06
2016-12-10T06:59:33.533Z,962.11
2016-12-10T07:00:33.547Z,962.08
2016-12-10T07:01:33.563Z,962.12
2016-12-10T07:02:33.579Z,962.08
2016-12-10T07:03:33.594Z,962.11
2016-12-10T07:04:33.609Z,962.09
2016-12-10T07:05:33.623Z,962.1
2016-12-10T07:06:33.640Z,962.13
2016-12-10T07:07:33.655Z,962.15
2016-12-10T07:08:33.670Z,962.14
2016-12-10T07:09:33.687Z,962.14
2016-12-10T07:10:33.700Z,962.13
2016-12-10T07:11:33.716Z,962.13
2016-12-10T07:12:33.730Z,962.14
2016-12-10T07:13:33.746Z,962.17
2016-12-10T07:14:33.760Z,962.17
2016-12-10T07:15:33.775Z,962.17
2016-12-10T07:16:33.811Z,962.17
2016-12-10T07:17:33.807Z,962.2
2016-12-10T07:18:33.822Z,962.19
2016-12-10T07:19:33.837Z,962.22
2016-12-10T07:20:33.853Z,962.17
2016-12-10T07:21:33.868Z,962.15
2016-12-10T07:22:33.883Z,962.17
2016-12-10T07:23:33.899Z,962.14
2016-12-10T07:24:33.914Z,962.12
2016-12-10T07:25:33.929Z,962.15
2016-12-10T07:26:33.944Z,962.13
2016-12-10T07:27:33.960Z,962.13
2016-12-10T07:28:33.975Z,962.15
2016-12-10T07:29:33.991Z,962.16
2016-12-10T07:30:34.007Z,962.17
2016-12-10T07:31:34.035Z,962.15
2016-12-10T07:32:34.038Z,962.17
2016-12-10T07:33:34.052Z,962.15
2016-12-10T07:34:34.069Z,962.2
2016-12-10T07:35:34.084Z,962.2
2016-12-10T07:36:34.100Z,962.21
2016-12-10T07:37:34.116Z,962.18
2016-12-10T07:38:34.130Z,962.18
2016-12-10T07:39:34.145Z,962.23
2016-12-10T07:40:34.160Z,962.24
2016-12-10T07:41:34.177Z,962.29
2016-12-10T07:42:34.192Z,962.28
2016-12-10T07:43:34.207Z,962.28
2016-12-10T07:44:34.223Z,962.32
2016-12-10T07:45:34.238Z,962.28
2016-12-10T07:46:34.252Z,962.33
2016-12-10T07:47:34.268Z,962.33
2016-12-10T07:48:34.283Z,962.37
2016-12-10T07:49:34.298Z,962.38
2016-12-10T07:50:34.313Z,962.39
2016-12-10T07:51:34.329Z,962.4
2016-12-10T07:52:34.343Z,962.42
2016-12-10T07:53:34.359Z,962.45
2016-12-10T07:54:34.374Z,962.42
2016-12-10T07:55:34.399Z,962.41
2016-12-10T07:56:34.404Z,962.4
2016-12-10T07:57:34.439Z,962.42
2016-12-10T07:58:34.435Z,962.4
2016-12-10T07:59:34.499Z,962.44
2016-12-10T08:00:34.465Z,962.45
2016-12-10T08:01:34.480Z,962.47
2016-12-10T08:02:34.494Z,962.46
2016-12-10T08:03:34.510Z,962.44
2016-12-10T08:04:34.525Z,962.48
2016-12-10T08:05:34.540Z,962.48
2016-12-10T08:06:34.555Z,962.5
2016-12-10T08:07:34.572Z,962.51
2016-12-10T08:08:34.587Z,962.49
2016-12-10T08:09:34.602Z,962.49
2016-12-10T08:10:34.617Z,962.47
2016-12-10T08:11:34.632Z,962.48
2016-12-10T08:12:34.649Z,962.49
2016-12-10T08:13:34.663Z,962.54
2016-12-10T08:14:34.679Z,962.52
2016-12-10T08:15:34.695Z,962.54
2016-12-10T08:16:34.711Z,962.54
2016-12-10T08:17:34.725Z,962.52
2016-12-10T08:18:34.741Z,962.49
2016-12-10T08:19:34.757Z,962.5
2016-12-10T08:20:34.773Z,962.54
2016-12-10T08:21:34.786Z,962.55
2016-12-10T08:22:34.810Z,962.56
2016-12-10T08:23:34.818Z,962.61
2016-12-10T08:24:34.833Z,962.56
2016-12-10T08:25:34.849Z,962.58
2016-12-10T08:26:34.865Z,962.61
2016-12-10T08:27:34.881Z,962.62
2016-12-10T08:28:34.898Z,962.63
2016-12-10T08:29:34.920Z,962.63
2016-12-10T08:30:34.928Z,962.62
2016-12-10T08:31:34.944Z,962.62
2016-12-10T08:32:34.960Z,962.62
2016-12-10T08:33:34.976Z,962.63
2016-12-10T08:34:34.990Z,962.63
2016-12-10T08:35:35.007Z,962.66
2016-12-10T08:36:35.023Z,962.62
2016-12-10T08:37:35.039Z,962.65
2016-12-10T08:38:35.055Z,962.69
2016-12-10T08:39:35.070Z,962.68
2016-12-10T08:40:35.086Z,962.67
2016-12-10T08:41:35.102Z,962.66
2016-12-10T08:42:35.118Z,962.6
2016-12-10T08:43:35.133Z,962.66
2016-12-10T08:44:35.149Z,962.62
2016-12-10T08:45:35.166Z,962.64
2016-12-10T08:46:35.182Z,962.63
2016-12-10T08:47:35.199Z,962.66
2016-12-10T08:48:35.213Z,962.65
2016-12-10T08:49:35.230Z,962.71
2016-12-10T08:50:35.246Z,962.65
2016-12-10T08:51:35.268Z,962.68
2016-12-10T08:52:35.278Z,962.67
2016-12-10T08:53:35.293Z,962.69
2016-12-10T08:54:35.309Z,962.73
2016-12-10T08:55:35.325Z,962.72
2016-12-10T08:56:35.341Z,962.69
2016-12-10T08:57:35.357Z,962.72
2016-12-10T08:58:35.373Z,962.67
2016-12-10T08:59:35.389Z,962.68
2016-12-10T09:00:35.406Z,962.67
2016-12-10T09:01:35.421Z,962.67
2016-12-10T09:02:35.439Z,962.67
2016-12-10T09:03:35.454Z,962.69
2016-12-10T09:04:35.470Z,962.67
2016-12-10T09:05:35.489Z,962.66
2016-12-10T09:06:35.506Z,962.66
2016-12-10T09:07:35.521Z,962.69
2016-12-10T09:08:35.536Z,962.69
2016-12-10T09:09:35.552Z,962.68
2016-12-10T09:10:35.568Z,962.74
2016-12-10T09:11:35.586Z,962.71
2016-12-10T09:12:35.602Z,962.65
2016-12-10T09:13:35.618Z,962.71
2016-12-10T09:14:35.635Z,962.71
2016-12-10T09:15:35.651Z,962.71
2016-12-10T09:16:35.670Z,962.67
2016-12-10T09:17:35.685Z,962.69
2016-12-10T09:18:35.704Z,962.66
2016-12-10T09:19:35.719Z,962.63
2016-12-10T09:20:35.738Z,962.67
2016-12-10T09:21:35.773Z,962.68
2016-12-10T09:22:35.773Z,962.65
2016-12-10T09:23:35.790Z,962.66
2016-12-10T09:24:35.809Z,962.64
2016-12-10T09:25:35.828Z,962.65
2016-12-10T09:26:35.844Z,962.68
2016-12-10T09:27:35.864Z,962.67
2016-12-10T09:28:35.897Z,962.64
2016-12-10T09:29:35.902Z,962.64
2016-12-10T09:30:35.920Z,962.62
2016-12-10T09:31:35.939Z,962.62
2016-12-10T09:32:35.960Z,962.62
2016-12-10T09:33:35.979Z,962.58
2016-12-10T09:34:35.998Z,962.56
2016-12-10T09:35:36.019Z,962.56
2016-12-10T09:36:36.054Z,962.55
2016-12-10T09:37:36.059Z,962.49
2016-12-10T09:38:36.078Z,962.5
2016-12-10T09:39:36.099Z,962.47
2016-12-10T09:40:36.120Z,962.42
2016-12-10T09:41:36.143Z,962.45
2016-12-10T09:42:36.160Z,962.39
2016-12-10T09:43:36.181Z,962.4
2016-12-10T09:44:36.203Z,962.37
2016-12-10T09:45:36.223Z,962.33
2016-12-10T09:46:36.245Z,962.38
2016-12-10T09:47:36.267Z,962.29
2016-12-10T09:48:36.287Z,962.26
2016-12-10T09:49:36.308Z,962.31
2016-12-10T09:50:36.331Z,962.28
2016-12-10T09:51:36.353Z,962.32
2016-12-10T09:52:36.374Z,962.32
2016-12-10T09:53:36.396Z,962.33
2016-12-10T09:54:36.421Z,962.31
2016-12-10T09:55:36.441Z,962.33
2016-12-10T09:56:36.463Z,962.35
2016-12-10T09:57:36.485Z,962.34
2016-12-10T09:58:36.508Z,962.34
2016-12-10T09:59:36.529Z,962.29
2016-12-10T10:00:36.553Z,962.3
2016-12-10T10:01:36.576Z,962.32
2016-12-10T10:02:36.598Z,962.3
2016-12-10T10:03:36.619Z,962.33
2016-12-10T10:04:36.644Z,962.33
2016-12-10T10:05:36.666Z,962.31
2016-12-10T10:06:36.696Z,962.3
2016-12-10T10:07:36.712Z,962.33
2016-12-10T10:08:36.743Z,962.29
2016-12-10T10:09:36.758Z,962.29
2016-12-10T10:10:36.780Z,962.26
2016-12-10T10:11:36.803Z,962.28
2016-12-10T10:12:36.827Z,962.3
2016-12-10T10:13:36.851Z,962.26
2016-12-10T10:14:36.872Z,962.27
2016-12-10T10:15:36.896Z,962.27
2016-12-10T10:16:36.920Z,962.26
2016-12-10T10:17:36.944Z,962.24
2016-12-10T10:18:36.965Z,962.28
2016-12-10T10:19:36.990Z,962.25
2016-12-10T10:20:37.014Z,962.24
2016-12-10T10:21:37.037Z,962.24
2016-12-10T10:22:37.061Z,962.28
2016-12-10T10:23:37.085Z,962.27
2016-12-10T10:24:37.110Z,962.28
2016-12-10T10:25:37.132Z,962.29
2016-12-10T10:26:37.167Z,962.29
2016-12-10T10:27:37.180Z,962.27
2016-12-10T10:28:37.205Z,962.31
2016-12-10T10:29:37.228Z,962.31
2016-12-10T10:30:37.252Z,962.31
2016-12-10T10:31:37.276Z,962.32
2016-12-10T10:32:37.300Z,962.29
2016-12-10T10:33:37.324Z,962.31
2016-12-10T10:34:37.348Z,962.32
2016-12-10T10:35:37.372Z,962.26
2016-12-10T10:36:37.397Z,962.28
2016-12-10T10:37:37.423Z,962.24
2016-12-10T10:38:37.446Z,962.21
2016-12-10T10:39:37.471Z,962.21
2016-12-10T10:40:37.495Z,962.22
2016-12-10T10:41:37.520Z,962.23
2016-12-10T10:42:37.546Z,962.23
2016-12-10T10:43:37.568Z,962.2
2016-12-10T10:44:37.593Z,962.2
2016-12-10T10:45:37.619Z,962.21
2016-12-10T10:46:37.642Z,962.2
2016-12-10T10:47:37.666Z,962.2
2016-12-10T10:48:37.691Z,962.2
2016-12-10T10:49:37.716Z,962.21
2016-12-10T10:50:37.738Z,962.2
2016-12-10T10:51:37.764Z,962.23
2016-12-10T10:52:37.789Z,962.24
2016-12-10T10:53:37.814Z,962.21
2016-12-10T10:54:37.838Z,962.18
2016-12-10T10:55:37.863Z,962.19
2016-12-10T10:56:37.887Z,962.19
2016-12-10T10:57:37.912Z,962.21
2016-12-10T10:58:37.936Z,962.23
2016-12-10T10:59:37.961Z,962.21
2016-12-10T11:00:37.986Z,962.21
2016-12-10T11:01:38.009Z,962.21
2016-12-10T11:02:38.034Z,962.17
2016-12-10T11:03:38.060Z,962.2
2016-12-10T11:04:38.086Z,962.15
2016-12-10T11:05:38.108Z,962.19
2016-12-10T11:06:38.133Z,962.13
2016-12-10T11:07:38.158Z,962.11
2016-12-10T11:08:38.183Z,962.07
2016-12-10T11:09:38.213Z,962.09
2016-12-10T11:10:38.231Z,962.08
2016-12-10T11:11:38.257Z,962.1
2016-12-10T11:12:38.281Z,962.13
2016-12-10T11:13:38.306Z,962.1
2016-12-10T11:14:38.330Z,962.11
2016-12-10T11:15:38.356Z,962.1
2016-12-10T11:16:38.380Z,962.08
2016-12-10T11:17:38.406Z,962.05
2016-12-10T11:18:38.430Z,962.03
2016-12-10T11:19:38.455Z,961.99
2016-12-10T11:20:38.478Z,961.94
2016-12-10T11:21:38.504Z,962.02
2016-12-10T11:22:38.530Z,962
2016-12-10T11:23:38.554Z,961.99
2016-12-10T11:24:38.578Z,961.96
2016-12-10T11:25:38.604Z,961.96
2016-12-10T11:26:38.629Z,961.95
2016-12-10T11:27:38.653Z,961.92
2016-12-10T11:28:38.678Z,961.94
2016-12-10T11:29:38.703Z,961.94
2016-12-10T11:30:38.729Z,961.96
2016-12-10T11:31:38.752Z,961.91
2016-12-10T11:32:38.787Z,961.9
2016-12-10T11:33:38.803Z,961.89
2016-12-10T11:34:38.826Z,961.88
2016-12-10T11:35:38.853Z,961.87
2016-12-10T11:36:38.877Z,961.82
2016-12-10T11:37:38.902Z,961.8
2016-12-10T11:38:38.946Z,961.81
2016-12-10T11:39:38.952Z,961.78
2016-12-10T11:40:38.992Z,961.78
2016-12-10T11:41:39.002Z,961.79
2016-12-10T11:42:39.027Z,961.72
2016-12-10T11:43:39.052Z,961.72
2016-12-10T11:44:39.078Z,961.73
2016-12-10T11:45:39.103Z,961.69
2016-12-10T11:46:39.128Z,961.64
2016-12-10T11:47:39.154Z,961.63
2016-12-10T11:48:39.179Z,961.62
2016-12-10T11:49:39.205Z,961.59
2016-12-10T11:50:39.229Z,961.56
2016-12-10T11:51:39.255Z,961.56
2016-12-10T11:52:39.279Z,961.52
2016-12-10T11:53:39.304Z,961.5
2016-12-10T11:54:39.330Z,961.53
2016-12-10T11:55:39.356Z,961.49
2016-12-10T11:56:39.385Z,961.5
2016-12-10T11:57:39.405Z,961.47
2016-12-10T11:58:39.431Z,961.43
2016-12-10T11:59:39.458Z,961.47
2016-12-10T12:00:39.480Z,961.43
2016-12-10T12:01:39.505Z,961.49
2016-12-10T12:02:39.533Z,961.52
2016-12-10T12:03:39.601Z,961.46
2016-12-10T12:04:39.589Z,961.5
2016-12-10T12:05:39.609Z,961.51
2016-12-10T12:06:39.634Z,961.51
2016-12-10T12:07:39.658Z,961.49
2016-12-10T12:08:39.684Z,961.47
2016-12-10T12:09:39.710Z,961.45
2016-12-10T12:10:39.735Z,961.43
2016-12-10T12:11:39.761Z,961.47
2016-12-10T12:12:39.807Z,961.45
2016-12-10T12:13:39.812Z,961.48
2016-12-10T12:14:39.838Z,961.46
2016-12-10T12:15:39.864Z,961.47
2016-12-10T12:16:39.890Z,961.48
2016-12-10T12:17:39.916Z,961.45
2016-12-10T12:18:39.939Z,961.41
2016-12-10T12:19:39.965Z,961.44
2016-12-10T12:20:39.994Z,961.42
2016-12-10T12:21:40.019Z,961.44
2016-12-10T12:22:40.043Z,961.4
2016-12-10T12:23:40.070Z,961.43
2016-12-10T12:24:40.096Z,961.44
2016-12-10T12:25:40.120Z,961.41
2016-12-10T12:26:40.147Z,961.42
2016-12-10T12:27:40.173Z,961.41
2016-12-10T12:28:40.198Z,961.39
2016-12-10T12:29:40.223Z,961.43
2016-12-10T12:30:40.249Z,961.43
2016-12-10T12:31:40.276Z,961.44
2016-12-10T12:32:40.302Z,961.44